sensor_id;sensor_type;location;lat;lon;timestamp;P1;durP1;ratioP1;P2;durP2;ratioP2
8187;SDS011;4135;49.184;9.722;2022-09-03T00:02:05;2.78;;;1.20;;
8187;SDS011;4135;49.184;9.722;2022-09-03T00:04:59;2.92;;;1.13;;
8187;SDS011;4135;49.184;9.722;2022-09-03T00:11:09;1.95;;;1.00;;
8187;SDS011;4135;49.184;9.722;2022-09-03T00:13:35;1.77;;;1.02;;
8187;SDS011;4135;49.184;9.722;2022-09-03T00:16:21;3.88;;;1.05;;
8187;SDS011;4135;49.184;9.722;2022-09-03T00:18:58;0.75;;;0.73;;
8187;SDS011;4135;49.184;9.722;2022-09-03T00:21:39;2.33;;;1.30;;
8187;SDS011;4135;49.184;9.722;2022-09-03T00:24:12;6.38;;;1.10;;
8187;SDS011;4135;49.184;9.722;2022-09-03T00:26:46;1.77;;;1.00;;
8187;SDS011;4135;49.184;9.722;2022-09-03T00:29:27;2.20;;;1.10;;
8187;SDS011;4135;49.184;9.722;2022-09-03T00:32:17;1.92;;;1.15;;
8187;SDS011;4135;49.184;9.722;2022-09-03T00:35:08;3.35;;;1.48;;
8187;SDS011;4135;49.184;9.722;2022-09-03T00:37:44;4.57;;;1.10;;
8187;SDS011;4135;49.184;9.722;2022-09-03T00:40:21;1.45;;;1.08;;
8187;SDS011;4135;49.184;9.722;2022-09-03T00:52:06;1.25;;;0.88;;
8187;SDS011;4135;49.184;9.722;2022-09-03T00:54:45;2.55;;;0.80;;
8187;SDS011;4135;49.184;9.722;2022-09-03T00:57:36;1.35;;;1.00;;
8187;SDS011;4135;49.184;9.722;2022-09-03T01:00:42;2.95;;;1.40;;
8187;SDS011;4135;49.184;9.722;2022-09-03T01:03:16;1.40;;;1.30;;
8187;SDS011;4135;49.184;9.722;2022-09-03T01:06:02;0.93;;;0.88;;
8187;SDS011;4135;49.184;9.722;2022-09-03T01:12:00;1.50;;;0.75;;
8187;SDS011;4135;49.184;9.722;2022-09-03T01:23:13;1.10;;;1.00;;
8187;SDS011;4135;49.184;9.722;2022-09-03T01:31:34;2.22;;;1.17;;
8187;SDS011;4135;49.184;9.722;2022-09-03T01:36:57;3.42;;;1.20;;
8187;SDS011;4135;49.184;9.722;2022-09-03T01:39:44;2.15;;;1.25;;
8187;SDS011;4135;49.184;9.722;2022-09-03T01:45:14;2.65;;;1.13;;
8187;SDS011;4135;49.184;9.722;2022-09-03T01:50:53;2.25;;;1.02;;
8187;SDS011;4135;49.184;9.722;2022-09-03T01:59:06;2.50;;;1.38;;
8187;SDS011;4135;49.184;9.722;2022-09-03T02:02:10;2.10;;;1.52;;
8187;SDS011;4135;49.184;9.722;2022-09-03T02:04:59;2.38;;;1.38;;
8187;SDS011;4135;49.184;9.722;2022-09-03T02:07:31;2.05;;;1.08;;
8187;SDS011;4135;49.184;9.722;2022-09-03T02:10:04;1.33;;;1.00;;
8187;SDS011;4135;49.184;9.722;2022-09-03T02:12:36;1.55;;;1.45;;
8187;SDS011;4135;49.184;9.722;2022-09-03T02:15:11;3.28;;;1.88;;
8187;SDS011;4135;49.184;9.722;2022-09-03T02:17:43;2.45;;;0.93;;
8187;SDS011;4135;49.184;9.722;2022-09-03T02:20:16;2.58;;;1.23;;
8187;SDS011;4135;49.184;9.722;2022-09-03T02:22:48;3.08;;;1.30;;
8187;SDS011;4135;49.184;9.722;2022-09-03T02:25:19;2.90;;;1.83;;
8187;SDS011;4135;49.184;9.722;2022-09-03T02:27:51;2.97;;;1.60;;
8187;SDS011;4135;49.184;9.722;2022-09-03T02:30:21;2.30;;;1.27;;
8187;SDS011;4135;49.184;9.722;2022-09-03T02:32:50;1.52;;;1.33;;
8187;SDS011;4135;49.184;9.722;2022-09-03T02:35:20;1.83;;;1.20;;
8187;SDS011;4135;49.184;9.722;2022-09-03T02:37:50;2.20;;;1.50;;
8187;SDS011;4135;49.184;9.722;2022-09-03T02:40:19;2.35;;;1.90;;
8187;SDS011;4135;49.184;9.722;2022-09-03T02:42:49;1.92;;;1.42;;
8187;SDS011;4135;49.184;9.722;2022-09-03T02:45:24;2.58;;;1.48;;
8187;SDS011;4135;49.184;9.722;2022-09-03T02:47:58;4.18;;;1.70;;
8187;SDS011;4135;49.184;9.722;2022-09-03T02:50:28;3.85;;;1.77;;
8187;SDS011;4135;49.184;9.722;2022-09-03T02:52:58;2.00;;;1.58;;
8187;SDS011;4135;49.184;9.722;2022-09-03T02:55:27;2.83;;;1.90;;
8187;SDS011;4135;49.184;9.722;2022-09-03T02:57:57;3.45;;;1.33;;
8187;SDS011;4135;49.184;9.722;2022-09-03T03:00:28;3.72;;;1.35;;
8187;SDS011;4135;49.184;9.722;2022-09-03T03:02:57;3.40;;;1.83;;
8187;SDS011;4135;49.184;9.722;2022-09-03T03:05:35;3.75;;;1.80;;
8187;SDS011;4135;49.184;9.722;2022-09-03T03:08:17;2.13;;;1.40;;
8187;SDS011;4135;49.184;9.722;2022-09-03T03:10:50;1.48;;;1.17;;
8187;SDS011;4135;49.184;9.722;2022-09-03T03:13:21;2.97;;;1.63;;
8187;SDS011;4135;49.184;9.722;2022-09-03T03:15:51;2.50;;;1.83;;
8187;SDS011;4135;49.184;9.722;2022-09-03T03:18:24;1.50;;;1.40;;
8187;SDS011;4135;49.184;9.722;2022-09-03T03:20:54;1.67;;;1.38;;
8187;SDS011;4135;49.184;9.722;2022-09-03T03:23:24;2.70;;;1.40;;
8187;SDS011;4135;49.184;9.722;2022-09-03T03:25:53;2.60;;;1.63;;
8187;SDS011;4135;49.184;9.722;2022-09-03T03:28:32;3.42;;;1.60;;
8187;SDS011;4135;49.184;9.722;2022-09-03T03:31:04;3.13;;;1.70;;
8187;SDS011;4135;49.184;9.722;2022-09-03T03:33:41;2.65;;;1.63;;
8187;SDS011;4135;49.184;9.722;2022-09-03T03:36:12;5.25;;;1.48;;
8187;SDS011;4135;49.184;9.722;2022-09-03T03:38:43;1.30;;;1.10;;
8187;SDS011;4135;49.184;9.722;2022-09-03T03:41:14;3.58;;;1.65;;
8187;SDS011;4135;49.184;9.722;2022-09-03T03:43:46;2.22;;;1.35;;
8187;SDS011;4135;49.184;9.722;2022-09-03T03:46:16;1.73;;;1.35;;
8187;SDS011;4135;49.184;9.722;2022-09-03T03:48:46;2.40;;;1.73;;
8187;SDS011;4135;49.184;9.722;2022-09-03T03:51:17;2.40;;;1.73;;
8187;SDS011;4135;49.184;9.722;2022-09-03T03:53:47;3.60;;;1.83;;
8187;SDS011;4135;49.184;9.722;2022-09-03T03:56:16;2.75;;;1.65;;
8187;SDS011;4135;49.184;9.722;2022-09-03T03:58:46;1.38;;;1.30;;
8187;SDS011;4135;49.184;9.722;2022-09-03T04:01:17;2.05;;;1.70;;
8187;SDS011;4135;49.184;9.722;2022-09-03T04:03:48;2.05;;;1.42;;
8187;SDS011;4135;49.184;9.722;2022-09-03T04:06:19;3.22;;;1.80;;
8187;SDS011;4135;49.184;9.722;2022-09-03T04:08:48;2.33;;;1.70;;
8187;SDS011;4135;49.184;9.722;2022-09-03T04:11:20;2.50;;;1.63;;
8187;SDS011;4135;49.184;9.722;2022-09-03T04:13:51;5.65;;;1.85;;
8187;SDS011;4135;49.184;9.722;2022-09-03T04:16:25;3.75;;;1.90;;
8187;SDS011;4135;49.184;9.722;2022-09-03T04:18:55;2.53;;;1.60;;
8187;SDS011;4135;49.184;9.722;2022-09-03T04:21:26;2.88;;;1.95;;
8187;SDS011;4135;49.184;9.722;2022-09-03T04:23:57;4.78;;;1.50;;
8187;SDS011;4135;49.184;9.722;2022-09-03T04:26:27;1.38;;;1.30;;
8187;SDS011;4135;49.184;9.722;2022-09-03T04:28:59;2.42;;;1.65;;
8187;SDS011;4135;49.184;9.722;2022-09-03T04:31:31;3.53;;;1.38;;
8187;SDS011;4135;49.184;9.722;2022-09-03T04:34:02;7.22;;;2.00;;
8187;SDS011;4135;49.184;9.722;2022-09-03T04:36:34;3.30;;;1.80;;
8187;SDS011;4135;49.184;9.722;2022-09-03T04:39:05;2.20;;;1.50;;
8187;SDS011;4135;49.184;9.722;2022-09-03T04:41:34;3.88;;;1.80;;
8187;SDS011;4135;49.184;9.722;2022-09-03T04:44:04;3.22;;;1.88;;
8187;SDS011;4135;49.184;9.722;2022-09-03T04:46:34;1.95;;;1.40;;
8187;SDS011;4135;49.184;9.722;2022-09-03T04:49:04;2.78;;;2.17;;
8187;SDS011;4135;49.184;9.722;2022-09-03T04:51:35;3.78;;;1.85;;
8187;SDS011;4135;49.184;9.722;2022-09-03T04:54:06;5.57;;;1.83;;
8187;SDS011;4135;49.184;9.722;2022-09-03T04:56:37;2.65;;;1.58;;
8187;SDS011;4135;49.184;9.722;2022-09-03T04:59:08;2.17;;;1.45;;
8187;SDS011;4135;49.184;9.722;2022-09-03T05:01:38;2.30;;;1.58;;
8187;SDS011;4135;49.184;9.722;2022-09-03T05:04:08;2.30;;;1.80;;
8187;SDS011;4135;49.184;9.722;2022-09-03T05:06:37;2.75;;;1.67;;
8187;SDS011;4135;49.184;9.722;2022-09-03T05:09:07;1.80;;;1.52;;
8187;SDS011;4135;49.184;9.722;2022-09-03T05:11:36;2.47;;;1.70;;
8187;SDS011;4135;49.184;9.722;2022-09-03T05:14:06;2.28;;;1.60;;
8187;SDS011;4135;49.184;9.722;2022-09-03T05:16:39;2.25;;;1.75;;
8187;SDS011;4135;49.184;9.722;2022-09-03T05:19:09;2.58;;;1.50;;
8187;SDS011;4135;49.184;9.722;2022-09-03T05:21:38;5.65;;;1.88;;
8187;SDS011;4135;49.184;9.722;2022-09-03T05:24:08;3.38;;;1.63;;
8187;SDS011;4135;49.184;9.722;2022-09-03T05:26:39;2.95;;;1.88;;
8187;SDS011;4135;49.184;9.722;2022-09-03T05:29:09;3.05;;;2.33;;
8187;SDS011;4135;49.184;9.722;2022-09-03T05:31:38;8.18;;;2.10;;
8187;SDS011;4135;49.184;9.722;2022-09-03T05:34:08;3.38;;;2.28;;
8187;SDS011;4135;49.184;9.722;2022-09-03T05:36:38;3.20;;;1.90;;
8187;SDS011;4135;49.184;9.722;2022-09-03T05:39:08;3.65;;;1.95;;
8187;SDS011;4135;49.184;9.722;2022-09-03T05:41:37;2.97;;;1.92;;
8187;SDS011;4135;49.184;9.722;2022-09-03T05:44:07;2.95;;;2.15;;
8187;SDS011;4135;49.184;9.722;2022-09-03T05:46:36;2.45;;;1.58;;
8187;SDS011;4135;49.184;9.722;2022-09-03T05:49:06;1.98;;;1.58;;
8187;SDS011;4135;49.184;9.722;2022-09-03T05:51:36;3.08;;;1.70;;
8187;SDS011;4135;49.184;9.722;2022-09-03T05:54:09;2.67;;;1.58;;
8187;SDS011;4135;49.184;9.722;2022-09-03T05:56:39;3.25;;;1.67;;
8187;SDS011;4135;49.184;9.722;2022-09-03T05:59:11;3.08;;;1.58;;
8187;SDS011;4135;49.184;9.722;2022-09-03T06:01:42;2.58;;;1.88;;
8187;SDS011;4135;49.184;9.722;2022-09-03T06:04:14;3.60;;;2.13;;
8187;SDS011;4135;49.184;9.722;2022-09-03T06:06:45;3.35;;;1.90;;
8187;SDS011;4135;49.184;9.722;2022-09-03T06:09:19;2.10;;;1.70;;
8187;SDS011;4135;49.184;9.722;2022-09-03T06:11:50;4.93;;;2.65;;
8187;SDS011;4135;49.184;9.722;2022-09-03T06:14:21;2.05;;;1.83;;
8187;SDS011;4135;49.184;9.722;2022-09-03T06:16:51;2.25;;;1.85;;
8187;SDS011;4135;49.184;9.722;2022-09-03T06:19:21;3.53;;;2.45;;
8187;SDS011;4135;49.184;9.722;2022-09-03T06:21:50;5.28;;;2.25;;
8187;SDS011;4135;49.184;9.722;2022-09-03T06:24:20;4.55;;;2.20;;
8187;SDS011;4135;49.184;9.722;2022-09-03T06:26:51;2.50;;;1.85;;
8187;SDS011;4135;49.184;9.722;2022-09-03T06:29:21;2.05;;;1.50;;
8187;SDS011;4135;49.184;9.722;2022-09-03T06:31:50;2.90;;;1.88;;
8187;SDS011;4135;49.184;9.722;2022-09-03T06:34:20;4.43;;;2.35;;
8187;SDS011;4135;49.184;9.722;2022-09-03T06:36:50;3.85;;;1.80;;
8187;SDS011;4135;49.184;9.722;2022-09-03T06:39:20;3.13;;;2.25;;
8187;SDS011;4135;49.184;9.722;2022-09-03T06:41:50;3.08;;;1.80;;
8187;SDS011;4135;49.184;9.722;2022-09-03T06:44:20;5.25;;;2.53;;
8187;SDS011;4135;49.184;9.722;2022-09-03T06:46:49;3.25;;;1.70;;
8187;SDS011;4135;49.184;9.722;2022-09-03T06:49:21;2.95;;;1.95;;
8187;SDS011;4135;49.184;9.722;2022-09-03T06:51:54;3.30;;;1.88;;
8187;SDS011;4135;49.184;9.722;2022-09-03T06:54:23;4.10;;;2.05;;
8187;SDS011;4135;49.184;9.722;2022-09-03T06:56:53;3.08;;;2.47;;
8187;SDS011;4135;49.184;9.722;2022-09-03T06:59:22;2.95;;;1.88;;
8187;SDS011;4135;49.184;9.722;2022-09-03T07:01:52;3.10;;;1.88;;
8187;SDS011;4135;49.184;9.722;2022-09-03T07:04:21;2.42;;;1.63;;
8187;SDS011;4135;49.184;9.722;2022-09-03T07:06:52;4.50;;;2.25;;
8187;SDS011;4135;49.184;9.722;2022-09-03T07:09:22;3.38;;;1.90;;
8187;SDS011;4135;49.184;9.722;2022-09-03T07:11:51;5.30;;;1.92;;
8187;SDS011;4135;49.184;9.722;2022-09-03T07:14:21;7.15;;;2.30;;
8187;SDS011;4135;49.184;9.722;2022-09-03T07:16:50;2.97;;;2.00;;
8187;SDS011;4135;49.184;9.722;2022-09-03T07:19:20;2.42;;;1.92;;
8187;SDS011;4135;49.184;9.722;2022-09-03T07:21:49;5.60;;;2.35;;
8187;SDS011;4135;49.184;9.722;2022-09-03T07:24:19;2.20;;;1.80;;
8187;SDS011;4135;49.184;9.722;2022-09-03T07:26:49;2.40;;;1.90;;
8187;SDS011;4135;49.184;9.722;2022-09-03T07:29:19;7.03;;;2.05;;
8187;SDS011;4135;49.184;9.722;2022-09-03T07:31:49;1.65;;;1.45;;
8187;SDS011;4135;49.184;9.722;2022-09-03T07:34:19;1.83;;;1.77;;
8187;SDS011;4135;49.184;9.722;2022-09-03T07:36:52;2.47;;;1.95;;
8187;SDS011;4135;49.184;9.722;2022-09-03T07:39:21;7.13;;;2.38;;
8187;SDS011;4135;49.184;9.722;2022-09-03T07:41:51;4.18;;;2.45;;
8187;SDS011;4135;49.184;9.722;2022-09-03T07:44:20;2.50;;;1.77;;
8187;SDS011;4135;49.184;9.722;2022-09-03T07:46:52;5.70;;;2.17;;
8187;SDS011;4135;49.184;9.722;2022-09-03T07:49:21;8.60;;;2.83;;
8187;SDS011;4135;49.184;9.722;2022-09-03T07:51:51;7.90;;;3.28;;
8187;SDS011;4135;49.184;9.722;2022-09-03T07:54:22;10.02;;;2.85;;
8187;SDS011;4135;49.184;9.722;2022-09-03T07:56:54;11.60;;;2.58;;
8187;SDS011;4135;49.184;9.722;2022-09-03T07:59:23;11.07;;;2.40;;
8187;SDS011;4135;49.184;9.722;2022-09-03T08:01:53;12.73;;;3.17;;
8187;SDS011;4135;49.184;9.722;2022-09-03T08:04:23;11.45;;;3.03;;
8187;SDS011;4135;49.184;9.722;2022-09-03T08:06:52;14.43;;;3.10;;
8187;SDS011;4135;49.184;9.722;2022-09-03T08:09:24;9.35;;;2.97;;
8187;SDS011;4135;49.184;9.722;2022-09-03T08:11:54;14.90;;;2.92;;
8187;SDS011;4135;49.184;9.722;2022-09-03T08:14:23;5.03;;;2.35;;
8187;SDS011;4135;49.184;9.722;2022-09-03T08:16:53;10.00;;;2.92;;
8187;SDS011;4135;49.184;9.722;2022-09-03T08:19:24;7.32;;;2.50;;
8187;SDS011;4135;49.184;9.722;2022-09-03T08:21:53;7.10;;;2.55;;
8187;SDS011;4135;49.184;9.722;2022-09-03T08:24:23;5.70;;;2.53;;
8187;SDS011;4135;49.184;9.722;2022-09-03T08:26:54;5.15;;;1.92;;
8187;SDS011;4135;49.184;9.722;2022-09-03T08:29:23;5.05;;;2.38;;
8187;SDS011;4135;49.184;9.722;2022-09-03T08:31:53;3.45;;;2.05;;
8187;SDS011;4135;49.184;9.722;2022-09-03T08:34:23;6.10;;;2.28;;
8187;SDS011;4135;49.184;9.722;2022-09-03T08:36:52;5.90;;;2.30;;
8187;SDS011;4135;49.184;9.722;2022-09-03T08:39:22;8.82;;;1.88;;
8187;SDS011;4135;49.184;9.722;2022-09-03T08:44:24;3.78;;;2.38;;
8187;SDS011;4135;49.184;9.722;2022-09-03T08:49:53;4.05;;;2.13;;
8187;SDS011;4135;49.184;9.722;2022-09-03T08:52:31;3.38;;;2.42;;
8187;SDS011;4135;49.184;9.722;2022-09-03T08:55:35;8.02;;;3.08;;
8187;SDS011;4135;49.184;9.722;2022-09-03T08:58:16;3.42;;;2.08;;
8187;SDS011;4135;49.184;9.722;2022-09-03T09:03:42;3.08;;;2.45;;
8187;SDS011;4135;49.184;9.722;2022-09-03T09:09:30;5.53;;;2.50;;
8187;SDS011;4135;49.184;9.722;2022-09-03T09:23:31;6.70;;;2.40;;
8187;SDS011;4135;49.184;9.722;2022-09-03T09:26:14;5.07;;;2.90;;
8187;SDS011;4135;49.184;9.722;2022-09-03T09:28:46;7.47;;;2.22;;
8187;SDS011;4135;49.184;9.722;2022-09-03T09:31:23;3.10;;;2.30;;
8187;SDS011;4135;49.184;9.722;2022-09-03T09:33:52;3.63;;;1.88;;
8187;SDS011;4135;49.184;9.722;2022-09-03T09:36:22;3.67;;;2.45;;
8187;SDS011;4135;49.184;9.722;2022-09-03T09:38:52;5.75;;;3.03;;
8187;SDS011;4135;49.184;9.722;2022-09-03T09:41:22;5.60;;;2.95;;
8187;SDS011;4135;49.184;9.722;2022-09-03T09:43:59;2.67;;;2.05;;
8187;SDS011;4135;49.184;9.722;2022-09-03T09:46:34;5.40;;;3.40;;
8187;SDS011;4135;49.184;9.722;2022-09-03T09:52:04;9.75;;;3.22;;
8187;SDS011;4135;49.184;9.722;2022-09-03T09:54:44;5.72;;;2.88;;
8187;SDS011;4135;49.184;9.722;2022-09-03T09:57:20;5.88;;;2.95;;
8187;SDS011;4135;49.184;9.722;2022-09-03T10:00:12;5.30;;;2.42;;
8187;SDS011;4135;49.184;9.722;2022-09-03T10:02:47;3.10;;;2.35;;
8187;SDS011;4135;49.184;9.722;2022-09-03T10:05:25;4.03;;;2.60;;
8187;SDS011;4135;49.184;9.722;2022-09-03T10:10:31;3.67;;;2.20;;
8187;SDS011;4135;49.184;9.722;2022-09-03T10:13:07;5.63;;;3.00;;
8187;SDS011;4135;49.184;9.722;2022-09-03T10:15:50;3.90;;;2.58;;
8187;SDS011;4135;49.184;9.722;2022-09-03T10:18:41;2.60;;;2.38;;
8187;SDS011;4135;49.184;9.722;2022-09-03T10:21:16;11.40;;;2.42;;
8187;SDS011;4135;49.184;9.722;2022-09-03T10:23:58;4.05;;;2.30;;
8187;SDS011;4135;49.184;9.722;2022-09-03T10:26:44;4.20;;;1.92;;
8187;SDS011;4135;49.184;9.722;2022-09-03T10:29:16;4.55;;;2.60;;
8187;SDS011;4135;49.184;9.722;2022-09-03T10:32:00;3.88;;;2.53;;
8187;SDS011;4135;49.184;9.722;2022-09-03T10:37:28;4.50;;;2.65;;
8187;SDS011;4135;49.184;9.722;2022-09-03T10:40:10;6.78;;;2.72;;
8187;SDS011;4135;49.184;9.722;2022-09-03T10:48:52;3.65;;;2.63;;
8187;SDS011;4135;49.184;9.722;2022-09-03T10:57:18;4.93;;;3.00;;
8187;SDS011;4135;49.184;9.722;2022-09-03T11:00:12;5.05;;;2.65;;
8187;SDS011;4135;49.184;9.722;2022-09-03T11:03:04;6.25;;;1.90;;
8187;SDS011;4135;49.184;9.722;2022-09-03T11:05:54;2.85;;;2.25;;
8187;SDS011;4135;49.184;9.722;2022-09-03T11:08:34;4.65;;;2.08;;
8187;SDS011;4135;49.184;9.722;2022-09-03T11:11:29;5.07;;;3.63;;
8187;SDS011;4135;49.184;9.722;2022-09-03T11:14:06;5.95;;;2.88;;
8187;SDS011;4135;49.184;9.722;2022-09-03T11:16:45;4.82;;;3.08;;
8187;SDS011;4135;49.184;9.722;2022-09-03T11:19:20;3.38;;;3.00;;
8187;SDS011;4135;49.184;9.722;2022-09-03T11:22:23;3.00;;;2.42;;
8187;SDS011;4135;49.184;9.722;2022-09-03T11:24:55;8.93;;;3.10;;
8187;SDS011;4135;49.184;9.722;2022-09-03T11:27:34;6.15;;;2.95;;
8187;SDS011;4135;49.184;9.722;2022-09-03T11:30:12;2.97;;;2.47;;
8187;SDS011;4135;49.184;9.722;2022-09-03T11:32:51;6.05;;;3.90;;
8187;SDS011;4135;49.184;9.722;2022-09-03T11:38:04;4.63;;;3.47;;
8187;SDS011;4135;49.184;9.722;2022-09-03T11:43:30;3.38;;;2.80;;
8187;SDS011;4135;49.184;9.722;2022-09-03T11:49:07;5.75;;;2.78;;
8187;SDS011;4135;49.184;9.722;2022-09-03T11:51:39;5.40;;;2.97;;
8187;SDS011;4135;49.184;9.722;2022-09-03T11:56:41;4.43;;;3.40;;
8187;SDS011;4135;49.184;9.722;2022-09-03T11:59:16;6.35;;;3.63;;
8187;SDS011;4135;49.184;9.722;2022-09-03T12:07:46;3.40;;;3.00;;
8187;SDS011;4135;49.184;9.722;2022-09-03T12:10:40;5.53;;;3.13;;
8187;SDS011;4135;49.184;9.722;2022-09-03T12:16:10;3.47;;;2.67;;
8187;SDS011;4135;49.184;9.722;2022-09-03T12:18:49;5.25;;;3.47;;
8187;SDS011;4135;49.184;9.722;2022-09-03T12:21:22;3.60;;;3.00;;
8187;SDS011;4135;49.184;9.722;2022-09-03T12:23:53;3.80;;;3.08;;
8187;SDS011;4135;49.184;9.722;2022-09-03T12:26:24;3.97;;;2.58;;
8187;SDS011;4135;49.184;9.722;2022-09-03T12:28:56;3.53;;;2.63;;
8187;SDS011;4135;49.184;9.722;2022-09-03T12:31:27;4.70;;;2.45;;
8187;SDS011;4135;49.184;9.722;2022-09-03T12:33:59;3.60;;;2.63;;
8187;SDS011;4135;49.184;9.722;2022-09-03T12:36:35;4.68;;;2.80;;
8187;SDS011;4135;49.184;9.722;2022-09-03T12:39:10;3.88;;;2.65;;
8187;SDS011;4135;49.184;9.722;2022-09-03T12:41:52;5.13;;;2.85;;
8187;SDS011;4135;49.184;9.722;2022-09-03T12:44:24;2.90;;;2.40;;
8187;SDS011;4135;49.184;9.722;2022-09-03T12:47:00;5.18;;;2.90;;
8187;SDS011;4135;49.184;9.722;2022-09-03T12:49:38;4.07;;;2.60;;
8187;SDS011;4135;49.184;9.722;2022-09-03T12:52:24;3.20;;;2.25;;
8187;SDS011;4135;49.184;9.722;2022-09-03T12:55:03;2.80;;;2.50;;
8187;SDS011;4135;49.184;9.722;2022-09-03T13:00:33;3.88;;;2.85;;
8187;SDS011;4135;49.184;9.722;2022-09-03T13:05:51;3.72;;;2.78;;
8187;SDS011;4135;49.184;9.722;2022-09-03T13:08:26;3.45;;;2.80;;
8187;SDS011;4135;49.184;9.722;2022-09-03T13:11:01;3.22;;;2.55;;
8187;SDS011;4135;49.184;9.722;2022-09-03T13:13:34;3.42;;;2.85;;
8187;SDS011;4135;49.184;9.722;2022-09-03T13:18:40;3.28;;;2.28;;
8187;SDS011;4135;49.184;9.722;2022-09-03T13:24:26;4.63;;;2.70;;
8187;SDS011;4135;49.184;9.722;2022-09-03T13:43:56;4.20;;;2.85;;
8187;SDS011;4135;49.184;9.722;2022-09-03T13:49:26;4.45;;;3.17;;
8187;SDS011;4135;49.184;9.722;2022-09-03T13:52:40;6.70;;;3.00;;
8187;SDS011;4135;49.184;9.722;2022-09-03T13:55:20;3.70;;;2.90;;
8187;SDS011;4135;49.184;9.722;2022-09-03T14:00:30;4.72;;;2.78;;
8187;SDS011;4135;49.184;9.722;2022-09-03T14:06:19;4.13;;;2.85;;
8187;SDS011;4135;49.184;9.722;2022-09-03T14:09:22;3.58;;;2.47;;
8187;SDS011;4135;49.184;9.722;2022-09-03T14:12:04;2.95;;;2.75;;
8187;SDS011;4135;49.184;9.722;2022-09-03T14:14:51;4.35;;;2.83;;
8187;SDS011;4135;49.184;9.722;2022-09-03T14:19:58;5.70;;;3.13;;
8187;SDS011;4135;49.184;9.722;2022-09-03T14:22:49;5.60;;;2.90;;
8187;SDS011;4135;49.184;9.722;2022-09-03T14:25:27;3.60;;;2.88;;
8187;SDS011;4135;49.184;9.722;2022-09-03T14:30:49;3.10;;;2.58;;
8187;SDS011;4135;49.184;9.722;2022-09-03T14:33:37;2.95;;;2.58;;
8187;SDS011;4135;49.184;9.722;2022-09-03T14:36:36;8.27;;;3.10;;
8187;SDS011;4135;49.184;9.722;2022-09-03T14:51:14;4.65;;;2.72;;
8187;SDS011;4135;49.184;9.722;2022-09-03T14:56:51;4.38;;;2.72;;
8187;SDS011;4135;49.184;9.722;2022-09-03T15:05:20;5.57;;;2.92;;
8187;SDS011;4135;49.184;9.722;2022-09-03T15:10:51;4.05;;;3.05;;
8187;SDS011;4135;49.184;9.722;2022-09-03T15:13:51;4.20;;;2.92;;
8187;SDS011;4135;49.184;9.722;2022-09-03T15:25:15;4.97;;;2.90;;
8187;SDS011;4135;49.184;9.722;2022-09-03T15:30:57;5.35;;;2.40;;
8187;SDS011;4135;49.184;9.722;2022-09-03T15:33:53;4.05;;;2.15;;
8187;SDS011;4135;49.184;9.722;2022-09-03T15:36:40;3.55;;;2.10;;
8187;SDS011;4135;49.184;9.722;2022-09-03T15:39:20;2.70;;;1.85;;
8187;SDS011;4135;49.184;9.722;2022-09-03T15:42:00;3.58;;;1.90;;
8187;SDS011;4135;49.184;9.722;2022-09-03T15:44:45;1.92;;;1.75;;
8187;SDS011;4135;49.184;9.722;2022-09-03T15:50:34;2.45;;;1.73;;
8187;SDS011;4135;49.184;9.722;2022-09-03T15:58:40;1.77;;;1.38;;
8187;SDS011;4135;49.184;9.722;2022-09-03T16:03:57;3.25;;;1.95;;
8187;SDS011;4135;49.184;9.722;2022-09-03T16:06:31;1.77;;;1.60;;
8187;SDS011;4135;49.184;9.722;2022-09-03T16:15:19;2.22;;;1.20;;
8187;SDS011;4135;49.184;9.722;2022-09-03T16:17:59;3.55;;;1.60;;
8187;SDS011;4135;49.184;9.722;2022-09-03T16:20:41;3.88;;;1.48;;
8187;SDS011;4135;49.184;9.722;2022-09-03T16:25:47;2.88;;;1.60;;
8187;SDS011;4135;49.184;9.722;2022-09-03T16:28:47;5.00;;;1.98;;
8187;SDS011;4135;49.184;9.722;2022-09-03T16:45:40;4.72;;;1.95;;
8187;SDS011;4135;49.184;9.722;2022-09-03T16:48:37;2.60;;;1.80;;
8187;SDS011;4135;49.184;9.722;2022-09-03T16:51:30;6.10;;;2.58;;
8187;SDS011;4135;49.184;9.722;2022-09-03T16:54:16;3.47;;;2.30;;
8187;SDS011;4135;49.184;9.722;2022-09-03T17:00:36;2.88;;;1.70;;
8187;SDS011;4135;49.184;9.722;2022-09-03T17:03:17;3.17;;;1.75;;
8187;SDS011;4135;49.184;9.722;2022-09-03T17:06:08;2.50;;;1.70;;
8187;SDS011;4135;49.184;9.722;2022-09-03T17:08:49;2.80;;;1.58;;
8187;SDS011;4135;49.184;9.722;2022-09-03T17:20:11;2.72;;;1.65;;
8187;SDS011;4135;49.184;9.722;2022-09-03T17:26:08;4.30;;;2.15;;
8187;SDS011;4135;49.184;9.722;2022-09-03T17:34:30;3.65;;;1.88;;
8187;SDS011;4135;49.184;9.722;2022-09-03T17:37:27;7.40;;;1.88;;
8187;SDS011;4135;49.184;9.722;2022-09-03T17:40:17;5.78;;;2.47;;
8187;SDS011;4135;49.184;9.722;2022-09-03T17:48:53;8.88;;;2.20;;
8187;SDS011;4135;49.184;9.722;2022-09-03T17:51:29;14.57;;;8.45;;
8187;SDS011;4135;49.184;9.722;2022-09-03T17:54:14;5.55;;;3.88;;
8187;SDS011;4135;49.184;9.722;2022-09-03T17:57:09;4.95;;;3.92;;
8187;SDS011;4135;49.184;9.722;2022-09-03T17:59:56;3.88;;;3.15;;
8187;SDS011;4135;49.184;9.722;2022-09-03T18:05:26;8.30;;;4.57;;
8187;SDS011;4135;49.184;9.722;2022-09-03T18:14:10;6.97;;;3.78;;
8187;SDS011;4135;49.184;9.722;2022-09-03T18:17:02;3.58;;;3.33;;
8187;SDS011;4135;49.184;9.722;2022-09-03T18:20:02;8.40;;;3.85;;
8187;SDS011;4135;49.184;9.722;2022-09-03T18:26:15;7.20;;;3.88;;
8187;SDS011;4135;49.184;9.722;2022-09-03T18:29:28;6.20;;;3.97;;
8187;SDS011;4135;49.184;9.722;2022-09-03T18:32:18;5.38;;;3.70;;
8187;SDS011;4135;49.184;9.722;2022-09-03T18:35:06;9.55;;;2.80;;
8187;SDS011;4135;49.184;9.722;2022-09-03T18:37:55;4.70;;;2.83;;
8187;SDS011;4135;49.184;9.722;2022-09-03T18:40:58;11.20;;;3.90;;
8187;SDS011;4135;49.184;9.722;2022-09-03T18:50:37;8.95;;;3.50;;
8187;SDS011;4135;49.184;9.722;2022-09-03T18:53:39;3.83;;;2.42;;
8187;SDS011;4135;49.184;9.722;2022-09-03T18:56:42;3.67;;;2.72;;
8187;SDS011;4135;49.184;9.722;2022-09-03T19:08:50;5.15;;;2.75;;
8187;SDS011;4135;49.184;9.722;2022-09-03T19:12:02;2.90;;;2.42;;
8187;SDS011;4135;49.184;9.722;2022-09-03T19:15:05;3.20;;;2.50;;
8187;SDS011;4135;49.184;9.722;2022-09-03T19:21:16;8.43;;;2.67;;
8187;SDS011;4135;49.184;9.722;2022-09-03T19:24:22;2.78;;;2.00;;
8187;SDS011;4135;49.184;9.722;2022-09-03T19:30:20;8.63;;;2.80;;
8187;SDS011;4135;49.184;9.722;2022-09-03T19:33:33;2.88;;;2.13;;
8187;SDS011;4135;49.184;9.722;2022-09-03T19:36:43;4.25;;;2.63;;
8187;SDS011;4135;49.184;9.722;2022-09-03T19:43:10;3.40;;;2.30;;
8187;SDS011;4135;49.184;9.722;2022-09-03T19:55:24;2.45;;;1.85;;
8187;SDS011;4135;49.184;9.722;2022-09-03T19:58:16;5.82;;;2.72;;
8187;SDS011;4135;49.184;9.722;2022-09-03T20:01:07;5.40;;;3.08;;
8187;SDS011;4135;49.184;9.722;2022-09-03T20:03:58;5.18;;;3.00;;
8187;SDS011;4135;49.184;9.722;2022-09-03T20:06:50;4.13;;;2.78;;
8187;SDS011;4135;49.184;9.722;2022-09-03T20:09:39;6.57;;;2.53;;
8187;SDS011;4135;49.184;9.722;2022-09-03T20:12:31;4.40;;;2.08;;
8187;SDS011;4135;49.184;9.722;2022-09-03T20:15:05;4.60;;;2.95;;
8187;SDS011;4135;49.184;9.722;2022-09-03T20:20:52;4.60;;;2.83;;
8187;SDS011;4135;49.184;9.722;2022-09-03T20:23:53;3.22;;;2.35;;
8187;SDS011;4135;49.184;9.722;2022-09-03T20:29:55;3.50;;;2.75;;
8187;SDS011;4135;49.184;9.722;2022-09-03T20:35:36;2.90;;;2.55;;
8187;SDS011;4135;49.184;9.722;2022-09-03T20:38:10;3.67;;;2.80;;
8187;SDS011;4135;49.184;9.722;2022-09-03T20:44:15;10.48;;;3.20;;
8187;SDS011;4135;49.184;9.722;2022-09-03T20:49:42;3.70;;;3.13;;
8187;SDS011;4135;49.184;9.722;2022-09-03T20:55:28;3.55;;;2.85;;
8187;SDS011;4135;49.184;9.722;2022-09-03T20:58:15;3.67;;;2.70;;
8187;SDS011;4135;49.184;9.722;2022-09-03T21:01:00;3.25;;;2.70;;
8187;SDS011;4135;49.184;9.722;2022-09-03T21:03:39;3.70;;;2.78;;
8187;SDS011;4135;49.184;9.722;2022-09-03T21:19:59;5.45;;;2.50;;
8187;SDS011;4135;49.184;9.722;2022-09-03T21:25:16;2.17;;;1.88;;
8187;SDS011;4135;49.184;9.722;2022-09-03T21:27:58;3.67;;;2.55;;
8187;SDS011;4135;49.184;9.722;2022-09-03T21:30:42;3.78;;;2.30;;
8187;SDS011;4135;49.184;9.722;2022-09-03T21:33:27;3.70;;;3.03;;
8187;SDS011;4135;49.184;9.722;2022-09-03T21:36:20;5.60;;;3.10;;
8187;SDS011;4135;49.184;9.722;2022-09-03T21:39:08;6.63;;;2.80;;
8187;SDS011;4135;49.184;9.722;2022-09-03T21:49:51;7.00;;;2.10;;
8187;SDS011;4135;49.184;9.722;2022-09-03T21:52:25;5.68;;;3.10;;
8187;SDS011;4135;49.184;9.722;2022-09-03T21:55:13;5.13;;;2.38;;
8187;SDS011;4135;49.184;9.722;2022-09-03T22:00:28;4.13;;;2.95;;